createdAt,value
2022-09-02T00:01:23.880Z,14.88
2022-09-02T00:04:06.525Z,14.84
2022-09-02T00:06:47.684Z,14.78
2022-09-02T00:09:27.878Z,14.74
2022-09-02T00:12:06.847Z,14.68
2022-09-02T00:14:47.869Z,14.66
2022-09-02T00:17:28.058Z,14.61
2022-09-02T00:20:10.361Z,14.55
2022-09-02T00:22:51.942Z,14.49
2022-09-02T00:25:33.373Z,14.48
2022-09-02T00:28:13.685Z,14.42
2022-09-02T00:30:55.756Z,14.35
2022-09-02T00:33:35.988Z,14.31
2022-09-02T00:36:14.584Z,14.24
2022-09-02T00:38:55.253Z,14.20
2022-09-02T00:41:34.747Z,14.17
2022-09-02T00:44:15.973Z,14.08
2022-09-02T00:46:55.007Z,14.06
2022-09-02T00:49:50.779Z,14.01
2022-09-02T00:52:34.790Z,13.94
2022-09-02T00:55:16.408Z,13.88
2022-09-02T00:57:59.686Z,13.83
2022-09-02T01:00:44.268Z,13.79
2022-09-02T01:03:27.727Z,13.72
2022-09-02T01:06:07.655Z,13.68
2022-09-02T01:08:50.997Z,13.62
2022-09-02T01:11:38.929Z,13.56
2022-09-02T01:14:20.438Z,13.50
2022-09-02T01:17:02.989Z,13.46
2022-09-02T01:19:45.861Z,13.44
2022-09-02T01:22:30.498Z,13.41
2022-09-02T01:25:14.952Z,13.37
2022-09-02T01:27:55.219Z,13.36
2022-09-02T01:30:36.215Z,13.30
2022-09-02T01:33:16.219Z,13.30
2022-09-02T01:35:54.692Z,13.26
2022-09-02T01:38:34.311Z,13.20
2022-09-02T01:41:13.735Z,13.20
2022-09-02T01:43:56.056Z,13.14
2022-09-02T01:46:36.418Z,13.11
2022-09-02T01:49:16.322Z,13.08
2022-09-02T01:51:59.728Z,13.05
2022-09-02T01:54:38.268Z,13.02
2022-09-02T01:57:17.830Z,12.98
2022-09-02T01:59:57.438Z,12.96
2022-09-02T02:02:37.568Z,12.94
2022-09-02T02:05:40.782Z,12.92
2022-09-02T02:08:19.444Z,12.88
2022-09-02T02:10:59.556Z,12.90
2022-09-02T02:13:50.965Z,12.88
2022-09-02T02:16:35.410Z,12.84
2022-09-02T02:19:16.810Z,12.82
2022-09-02T02:21:57.415Z,12.81
2022-09-02T02:24:47.867Z,12.81
2022-09-02T02:27:28.484Z,12.79
2022-09-02T02:30:10.539Z,12.75
2022-09-02T02:32:52.038Z,12.72
2022-09-02T02:35:32.682Z,12.67
2022-09-02T02:38:14.325Z,12.67
2022-09-02T02:40:57.435Z,12.64
2022-09-02T02:43:39.748Z,12.71
2022-09-02T02:46:19.476Z,12.70
2022-09-02T02:48:59.999Z,12.64
2022-09-02T02:51:38.383Z,12.57
2022-09-02T02:54:19.348Z,12.58
2022-09-02T02:57:03.227Z,12.51
2022-09-02T02:59:42.513Z,12.49
2022-09-02T03:02:25.982Z,12.47
2022-09-02T03:05:10.916Z,12.42
2022-09-02T03:07:51.416Z,12.39
2022-09-02T03:10:32.746Z,12.36
2022-09-02T03:13:15.448Z,12.35
2022-09-02T03:15:55.852Z,12.32
2022-09-02T03:18:35.685Z,12.29
2022-09-02T03:21:16.028Z,12.26
2022-09-02T03:23:58.040Z,12.23
2022-09-02T03:26:37.843Z,12.19
2022-09-02T03:29:18.067Z,12.14
2022-09-02T03:31:57.472Z,12.11
2022-09-02T03:34:41.687Z,12.08
2022-09-02T03:37:20.818Z,12.04
2022-09-02T03:40:00.152Z,12.00
2022-09-02T03:42:41.880Z,11.99
2022-09-02T03:45:22.808Z,11.96
2022-09-02T03:48:01.485Z,11.94
2022-09-02T03:50:47.244Z,11.91
2022-09-02T03:53:29.068Z,11.86
2022-09-02T03:56:30.916Z,11.82
2022-09-02T03:59:30.284Z,11.80
2022-09-02T04:02:08.621Z,11.76
2022-09-02T04:04:48.326Z,11.70
2022-09-02T04:07:29.723Z,11.70
2022-09-02T04:10:12.008Z,11.67
2022-09-02T04:12:54.260Z,11.64
2022-09-02T04:15:35.550Z,11.61
2022-09-02T04:18:15.807Z,11.58
2022-09-02T04:21:00.408Z,11.55
2022-09-02T04:23:43.208Z,11.55
2022-09-02T04:26:24.970Z,11.53
2022-09-02T04:29:06.394Z,11.52
2022-09-02T04:31:48.420Z,11.50
2022-09-02T04:34:26.946Z,11.47
2022-09-02T04:37:07.170Z,11.45
2022-09-02T04:39:46.613Z,11.45
2022-09-02T04:42:28.409Z,11.41
2022-09-02T04:45:10.888Z,11.41
2022-09-02T04:47:54.000Z,11.40
2022-09-02T04:50:33.420Z,11.37
2022-09-02T04:53:15.300Z,11.36
2022-09-02T04:55:58.239Z,11.36
2022-09-02T04:58:39.272Z,11.35
2022-09-02T05:01:23.242Z,11.34
2022-09-02T05:04:09.649Z,11.35
2022-09-02T05:06:55.863Z,11.34
2022-09-02T05:09:36.886Z,11.34
2022-09-02T05:12:21.047Z,11.34
2022-09-02T05:15:12.183Z,11.34
2022-09-02T05:17:53.119Z,11.33
2022-09-02T05:20:33.068Z,11.32
2022-09-02T05:23:14.665Z,11.35
2022-09-02T05:25:57.484Z,11.31
2022-09-02T05:28:57.967Z,11.33
2022-09-02T05:31:51.503Z,11.28
2022-09-02T05:34:34.153Z,11.34
2022-09-02T05:37:16.767Z,11.37
2022-09-02T05:40:39.024Z,11.40
2022-09-02T05:43:22.921Z,11.42
2022-09-02T05:46:08.050Z,11.41
2022-09-02T05:49:08.995Z,11.37
2022-09-02T05:51:54.621Z,11.43
2022-09-02T05:54:41.220Z,11.49
2022-09-02T05:57:23.595Z,11.55
2022-09-02T06:00:17.812Z,11.66
2022-09-02T06:03:08.042Z,11.74
2022-09-02T06:06:10.624Z,11.82
2022-09-02T06:08:52.143Z,11.92
2022-09-02T06:11:49.232Z,12.00
2022-09-02T06:14:34.848Z,12.09
2022-09-02T06:17:35.815Z,12.19
2022-09-02T06:20:17.228Z,12.27
2022-09-02T06:22:57.604Z,12.46
2022-09-02T06:25:39.169Z,12.58
2022-09-02T06:28:41.231Z,12.65
2022-09-02T06:31:22.843Z,12.71
2022-09-02T06:34:04.659Z,12.81
2022-09-02T06:36:46.928Z,12.91
2022-09-02T06:39:48.435Z,13.03
2022-09-02T06:42:33.965Z,13.16
2022-09-02T06:45:33.034Z,13.28
2022-09-02T06:48:15.959Z,13.42
2022-09-02T06:51:21.445Z,13.65
2022-09-02T06:54:03.015Z,13.72
2022-09-02T06:56:49.482Z,13.97
2022-09-02T06:59:33.951Z,14.09
2022-09-02T07:02:14.702Z,14.21
2022-09-02T07:05:10.903Z,14.34
2022-09-02T07:08:04.292Z,14.52
2022-09-02T07:10:45.284Z,14.64
2022-09-02T07:13:25.081Z,14.76
2022-09-02T07:16:07.513Z,14.94
2022-09-02T07:18:49.002Z,15.09
2022-09-02T07:21:49.463Z,15.19
2022-09-02T07:24:32.203Z,15.35
2022-09-02T07:27:12.951Z,15.47
2022-09-02T07:30:05.747Z,15.61
2022-09-02T07:32:49.107Z,15.75
2022-09-02T07:35:31.088Z,15.89
2022-09-02T07:38:22.898Z,16.05
2022-09-02T07:41:03.264Z,16.17
2022-09-02T07:43:49.680Z,16.33
2022-09-02T07:46:32.675Z,16.54
2022-09-02T07:49:15.542Z,16.66
2022-09-02T07:51:55.148Z,16.79
2022-09-02T07:54:35.009Z,17.01
2022-09-02T07:57:16.841Z,17.11
2022-09-02T07:59:57.927Z,17.36
2022-09-02T08:02:37.826Z,17.55
2022-09-02T08:05:17.433Z,17.79
2022-09-02T08:07:57.297Z,18.06
2022-09-02T08:10:50.577Z,18.34
2022-09-02T08:13:30.450Z,18.60
2022-09-02T08:16:11.239Z,18.88
2022-09-02T08:19:02.586Z,19.14
2022-09-02T08:22:06.124Z,19.49
2022-09-02T08:24:46.439Z,19.53
2022-09-02T08:27:27.522Z,19.82
2022-09-02T08:30:10.729Z,20.36
2022-09-02T08:32:50.672Z,20.65
2022-09-02T08:35:30.620Z,20.76
2022-09-02T08:38:12.888Z,21.16
2022-09-02T08:40:53.414Z,21.33
2022-09-02T08:43:40.093Z,21.80
2022-09-02T08:46:19.714Z,22.04
2022-09-02T08:49:03.915Z,22.35
2022-09-02T08:51:51.509Z,22.27
2022-09-02T08:54:38.118Z,22.30
2022-09-02T08:57:20.014Z,22.61
2022-09-02T09:00:02.534Z,22.86
2022-09-02T09:02:56.635Z,22.87
2022-09-02T09:05:46.942Z,23.15
2022-09-02T09:08:33.669Z,23.47
2022-09-02T09:11:18.710Z,23.26
2022-09-02T09:14:26.994Z,23.61
2022-09-02T09:17:12.542Z,23.66
2022-09-02T09:19:54.615Z,24.04
2022-09-02T09:22:38.168Z,24.14
2022-09-02T09:25:18.427Z,24.65
2022-09-02T09:28:00.820Z,24.99
2022-09-02T09:30:40.331Z,25.15
2022-09-02T09:33:23.209Z,25.34
2022-09-02T09:36:14.124Z,25.31
2022-09-02T09:38:54.563Z,25.14
2022-09-02T09:41:37.863Z,25.73
2022-09-02T09:44:40.225Z,25.48
2022-09-02T09:47:23.130Z,25.61
2022-09-02T09:50:15.957Z,25.78
2022-09-02T09:53:15.315Z,25.80
2022-09-02T09:55:59.105Z,25.81
2022-09-02T09:58:45.416Z,25.39
2022-09-02T10:01:26.299Z,25.38
2022-09-02T10:04:32.187Z,25.85
2022-09-02T10:07:13.369Z,25.77
2022-09-02T10:10:10.602Z,26.25
2022-09-02T10:12:50.894Z,26.21
2022-09-02T10:15:44.516Z,26.63
2022-09-02T10:18:33.090Z,26.65
2022-09-02T10:21:21.569Z,26.74
2022-09-02T10:24:06.409Z,26.99
2022-09-02T10:26:51.053Z,26.75
2022-09-02T10:29:42.910Z,27.23
2022-09-02T10:32:47.385Z,26.41
2022-09-02T10:35:31.812Z,26.41
2022-09-02T10:38:29.604Z,26.88
2022-09-02T10:41:27.634Z,26.74
2022-09-02T10:44:25.357Z,27.06
2022-09-02T10:47:35.387Z,26.98
2022-09-02T10:50:21.715Z,27.13
2022-09-02T10:53:11.091Z,26.94
2022-09-02T10:55:58.387Z,26.73
2022-09-02T10:58:46.660Z,26.98
2022-09-02T11:01:30.109Z,26.89
2022-09-02T11:04:16.716Z,26.91
2022-09-02T11:07:27.905Z,27.39
2022-09-02T11:10:42.972Z,27.17
2022-09-02T11:13:25.636Z,26.69
2022-09-02T11:16:08.249Z,27.14
2022-09-02T11:18:58.921Z,26.93
2022-09-02T11:21:50.519Z,27.53
2022-09-02T11:24:36.407Z,26.97
2022-09-02T11:27:44.262Z,27.47
2022-09-02T11:30:25.397Z,27.87
2022-09-02T11:33:22.941Z,27.64
2022-09-02T11:36:03.211Z,27.11
2022-09-02T11:39:49.505Z,26.73
2022-09-02T11:43:04.528Z,27.83
2022-09-02T11:46:00.872Z,27.95
2022-09-02T11:49:08.519Z,28.47
2022-09-02T11:52:03.501Z,27.84
2022-09-02T11:54:46.810Z,27.79
2022-09-02T11:57:27.580Z,28.45
2022-09-02T12:00:12.707Z,27.94
2022-09-02T12:02:51.913Z,28.13
2022-09-02T12:05:51.945Z,29.15
2022-09-02T12:09:04.587Z,29.21
2022-09-02T12:11:46.836Z,29.56
2022-09-02T12:15:07.549Z,29.60
2022-09-02T12:18:09.408Z,29.71
2022-09-02T12:21:16.457Z,29.23
2022-09-02T12:24:21.090Z,29.25
2022-09-02T12:27:29.335Z,29.42
2022-09-02T12:30:12.684Z,29.23
2022-09-02T12:33:13.306Z,29.44
2022-09-02T12:36:08.100Z,27.86
2022-09-02T12:39:36.057Z,28.54
2022-09-02T12:42:34.321Z,28.26
2022-09-02T12:45:29.014Z,28.32
2022-09-02T12:48:14.645Z,27.68
2022-09-02T12:50:57.714Z,27.71
2022-09-02T12:53:42.685Z,27.33
2022-09-02T12:56:23.754Z,27.68
2022-09-02T12:59:05.266Z,27.56
2022-09-02T13:01:49.171Z,27.26
2022-09-02T13:04:36.769Z,26.91
2022-09-02T13:08:02.440Z,27.59
2022-09-02T13:11:37.416Z,26.58
2022-09-02T13:14:58.332Z,26.74
2022-09-02T13:17:48.380Z,27.27
2022-09-02T13:20:51.310Z,27.06
2022-09-02T13:23:57.388Z,27.12
2022-09-02T13:27:16.517Z,27.28
2022-09-02T13:30:06.924Z,26.79
2022-09-02T13:32:46.302Z,26.95
2022-09-02T13:35:33.224Z,26.93
2022-09-02T13:38:16.496Z,26.82
2022-09-02T13:41:00.848Z,26.95
2022-09-02T13:43:41.552Z,26.73
2022-09-02T13:46:20.158Z,27.00
2022-09-02T13:48:59.579Z,26.88
2022-09-02T13:51:45.299Z,26.97
2022-09-02T13:54:44.289Z,26.77
2022-09-02T13:57:28.396Z,26.47
2022-09-02T14:00:09.632Z,26.52
2022-09-02T14:02:59.281Z,26.50
2022-09-02T14:05:47.274Z,26.46
2022-09-02T14:08:28.647Z,26.37
2022-09-02T14:11:15.758Z,26.35
2022-09-02T14:13:56.218Z,26.42
2022-09-02T14:16:37.851Z,26.39
2022-09-02T14:19:25.989Z,26.12
2022-09-02T14:22:22.372Z,25.81
2022-09-02T14:25:02.161Z,25.80
2022-09-02T14:27:42.070Z,25.62
2022-09-02T14:30:32.313Z,25.53
2022-09-02T14:33:19.888Z,25.49
2022-09-02T14:36:02.790Z,25.47
2022-09-02T14:38:55.590Z,25.49
2022-09-02T14:41:36.942Z,25.07
2022-09-02T14:44:24.901Z,25.28
2022-09-02T14:47:07.303Z,24.98
2022-09-02T14:49:50.277Z,25.18
2022-09-02T14:52:33.278Z,25.05
2022-09-02T14:55:32.583Z,24.74
2022-09-02T14:58:13.234Z,24.96
2022-09-02T15:00:55.540Z,24.67
2022-09-02T15:03:39.005Z,24.76
2022-09-02T15:06:19.483Z,24.87
2022-09-02T15:08:58.748Z,24.62
2022-09-02T15:11:39.019Z,24.71
2022-09-02T15:14:20.455Z,24.70
2022-09-02T15:17:01.970Z,24.46
2022-09-02T15:19:43.332Z,24.32
2022-09-02T15:22:25.131Z,24.61
2022-09-02T15:25:07.885Z,24.61
2022-09-02T15:27:47.059Z,24.80
2022-09-02T15:30:26.874Z,24.72
2022-09-02T15:33:14.621Z,24.63
2022-09-02T15:36:07.783Z,24.64
2022-09-02T15:38:47.061Z,24.69
2022-09-02T15:41:27.541Z,24.74
2022-09-02T15:44:09.259Z,24.52
2022-09-02T15:46:49.904Z,24.45
2022-09-02T15:49:30.597Z,24.50
2022-09-02T15:52:12.925Z,24.58
2022-09-02T15:54:52.893Z,24.48
2022-09-02T15:57:32.143Z,24.56
2022-09-02T16:00:13.042Z,24.57
2022-09-02T16:02:56.873Z,24.60
2022-09-02T16:05:37.047Z,24.50
2022-09-02T16:08:16.345Z,24.58
2022-09-02T16:11:10.079Z,24.36
2022-09-02T16:13:49.899Z,24.43
2022-09-02T16:16:32.146Z,24.46
2022-09-02T16:19:12.957Z,24.30
2022-09-02T16:21:53.769Z,24.21
2022-09-02T16:24:35.203Z,24.07
2022-09-02T16:27:14.612Z,23.91
2022-09-02T16:29:54.421Z,23.83
2022-09-02T16:32:37.856Z,23.76
2022-09-02T16:35:16.236Z,23.54
2022-09-02T16:37:57.428Z,23.45
2022-09-02T16:40:36.877Z,23.32
2022-09-02T16:43:16.764Z,23.28
2022-09-02T16:45:56.638Z,23.24
2022-09-02T16:48:36.309Z,23.08
2022-09-02T16:51:15.014Z,22.86
2022-09-02T16:53:55.706Z,22.85
2022-09-02T16:56:36.537Z,22.67
2022-09-02T16:59:19.110Z,22.64
2022-09-02T17:01:58.814Z,22.64
2022-09-02T17:04:37.137Z,22.39
2022-09-02T17:07:16.548Z,22.27
2022-09-02T17:09:56.358Z,22.23
2022-09-02T17:12:40.822Z,22.11
2022-09-02T17:15:25.926Z,22.05
2022-09-02T17:18:05.571Z,22.00
2022-09-02T17:20:46.012Z,21.86
2022-09-02T17:23:28.715Z,21.95
2022-09-02T17:26:08.821Z,21.89
2022-09-02T17:28:50.315Z,21.70
2022-09-02T17:31:33.396Z,21.78
2022-09-02T17:34:12.677Z,21.61
2022-09-02T17:36:53.313Z,21.48
2022-09-02T17:39:35.521Z,21.47
2022-09-02T17:42:13.668Z,21.40
2022-09-02T17:44:53.116Z,21.38
2022-09-02T17:47:34.005Z,21.32
2022-09-02T17:50:17.996Z,21.37
2022-09-02T17:53:00.892Z,21.25
2022-09-02T17:55:42.563Z,21.26
2022-09-02T17:58:25.305Z,21.17
2022-09-02T18:01:08.819Z,21.19
2022-09-02T18:03:59.199Z,21.10
2022-09-02T18:06:41.107Z,21.07
2022-09-02T18:09:23.950Z,21.05
2022-09-02T18:12:07.148Z,20.97
2022-09-02T18:14:49.427Z,20.93
2022-09-02T18:17:35.856Z,20.86
2022-09-02T18:20:24.364Z,20.77
2022-09-02T18:23:23.443Z,20.81
2022-09-02T18:26:11.911Z,20.79
2022-09-02T18:28:57.445Z,20.84
2022-09-02T18:31:43.484Z,20.76
2022-09-02T18:34:32.259Z,20.51
2022-09-02T18:37:19.869Z,20.63
2022-09-02T18:40:20.672Z,20.55
2022-09-02T18:43:08.931Z,20.38
2022-09-02T18:45:50.355Z,20.36
2022-09-02T18:48:33.070Z,20.32
2022-09-02T18:51:24.229Z,20.29
2022-09-02T18:54:10.216Z,20.27
2022-09-02T18:56:53.925Z,20.12
2022-09-02T18:59:40.648Z,20.12
2022-09-02T19:02:26.448Z,20.07
2022-09-02T19:05:09.779Z,20.10
2022-09-02T19:08:18.820Z,20.06
2022-09-02T19:11:04.344Z,20.03
2022-09-02T19:13:50.976Z,20.03
2022-09-02T19:16:34.459Z,20.01
2022-09-02T19:19:13.973Z,20.03
2022-09-02T19:21:55.114Z,20.04
2022-09-02T19:24:38.747Z,20.01
2022-09-02T19:27:20.427Z,20.03
2022-09-02T19:30:05.599Z,20.05
2022-09-02T19:33:27.836Z,20.04
2022-09-02T19:36:09.864Z,20.03
2022-09-02T19:38:50.600Z,19.86
2022-09-02T19:41:33.105Z,19.86
2022-09-02T19:44:15.457Z,19.85
2022-09-02T19:47:42.135Z,19.86
2022-09-02T19:49:55.824Z,19.75
2022-09-02T19:52:41.726Z,19.77
2022-09-02T19:55:21.475Z,19.72
2022-09-02T19:58:01.286Z,19.73
2022-09-02T20:00:42.965Z,19.59
2022-09-02T20:03:23.434Z,19.60
2022-09-02T20:06:06.344Z,19.57
2022-09-02T20:08:47.105Z,19.57
2022-09-02T20:11:26.738Z,19.53
2022-09-02T20:14:06.572Z,19.53
2022-09-02T20:16:48.354Z,19.37
2022-09-02T20:19:28.494Z,19.43
2022-09-02T20:22:11.059Z,19.33
2022-09-02T20:25:11.445Z,19.34
2022-09-02T20:28:02.106Z,19.36
2022-09-02T20:30:45.904Z,19.30
2022-09-02T20:33:34.925Z,19.31
2022-09-02T20:36:21.301Z,19.31
2022-09-02T20:39:15.138Z,19.20
2022-09-02T20:42:02.101Z,19.22
2022-09-02T20:45:00.216Z,19.18
2022-09-02T20:47:50.424Z,19.06
2022-09-02T20:50:41.146Z,18.98
2022-09-02T20:53:32.524Z,19.01
2022-09-02T20:56:20.315Z,18.86
2022-09-02T20:59:07.560Z,18.90
2022-09-02T21:01:49.900Z,18.81
2022-09-02T21:04:35.164Z,18.78
2022-09-02T21:07:17.681Z,18.59
2022-09-02T21:10:06.451Z,18.74
2022-09-02T21:12:52.240Z,18.58
2022-09-02T21:15:33.616Z,18.45
2022-09-02T21:18:17.359Z,18.57
2022-09-02T21:21:16.998Z,18.33
2022-09-02T21:24:02.803Z,18.33
2022-09-02T21:26:49.360Z,18.30
2022-09-02T21:29:41.149Z,18.24
2022-09-02T21:32:26.365Z,18.19
2022-09-02T21:35:10.418Z,18.14
2022-09-02T21:37:57.386Z,18.09
2022-09-02T21:40:46.101Z,17.91
2022-09-02T21:43:36.777Z,17.89
2022-09-02T21:46:24.892Z,17.92
2022-09-02T21:49:10.912Z,17.96
2022-09-02T21:51:54.592Z,17.77
2022-09-02T21:54:44.637Z,17.78
2022-09-02T21:57:38.190Z,17.75
2022-09-02T22:00:19.057Z,17.63
2022-09-02T22:03:06.624Z,17.58
2022-09-02T22:05:51.075Z,17.57
2022-09-02T22:08:39.319Z,17.52
2022-09-02T22:11:24.284Z,17.58
2022-09-02T22:14:14.451Z,17.43
2022-09-02T22:17:20.318Z,17.26
2022-09-02T22:20:05.269Z,17.24
2022-09-02T22:22:49.785Z,17.26
2022-09-02T22:25:33.922Z,17.32
2022-09-02T22:28:32.592Z,17.21
2022-09-02T22:31:16.924Z,17.26
2022-09-02T22:34:09.202Z,17.39
2022-09-02T22:37:06.262Z,17.27
2022-09-02T22:39:50.127Z,17.26
2022-09-02T22:42:35.854Z,17.15
2022-09-02T22:45:38.494Z,17.07
2022-09-02T22:48:40.405Z,17.04
2022-09-02T22:51:44.562Z,16.87
2022-09-02T22:54:26.795Z,16.87
2022-09-02T22:57:11.687Z,16.87
2022-09-02T23:00:01.695Z,16.77
2022-09-02T23:02:45.685Z,16.87
2022-09-02T23:05:46.768Z,16.81
2022-09-02T23:08:28.799Z,16.73
2022-09-02T23:11:11.603Z,16.77
2022-09-02T23:13:59.270Z,16.75
2022-09-02T23:17:06.720Z,16.73
2022-09-02T23:19:59.110Z,16.72
2022-09-02T23:22:56.689Z,16.62
2022-09-02T23:25:51.860Z,16.50
2022-09-02T23:28:39.679Z,16.40
2022-09-02T23:31:25.876Z,16.17
2022-09-02T23:34:13.933Z,16.16
2022-09-02T23:37:04.554Z,16.09
2022-09-02T23:39:56.238Z,16.10
2022-09-02T23:42:37.694Z,16.06
2022-09-02T23:45:23.711Z,15.98
2022-09-02T23:48:13.514Z,15.88
2022-09-02T23:51:03.852Z,15.89
2022-09-02T23:53:58.726Z,15.88
2022-09-02T23:56:53.806Z,15.86
2022-09-02T23:59:57.385Z,15.79
